Ana Sayfa
METAR-TAF:

METAR-TAF

Havaalanları :

Yap, Mikronezya

Enlem: 09-29N, Boylam: 138-05E, yükseklik: 28 m

Güncel hava durumu gözlemi

Rapor saat 01:50 UTC de 31 dakika önce yapıldı.
Rüzgar doğu/güneydoğudan 8 kt
Sıcaklık 32°C
Nem 71%
Basınç 1011 hPa
Görüş mesafesi: 19.3 km
1700 ft yükseklikte az bulutlu
30000 ft yükseklikte parçalı çok bulutlu

METAR: PTYA 270150Z 12008KT 12SM FEW017 BKN300 32/26 A2985 RMK SLP110 T03190259

Saat: 12:21 (02:21 UTC)

Tahmin

Rapor saat 23:33 UTC de 2 saat ve 48 dakika önce yapıldı.
Ayın 27'si saat 00 UTC'den ayın 27'si saat 24 UTC'ye kadar geçerli Tahmin
Rüzgar doğu/kuzeydoğudan 6 kt
Görüş mesafesi: 10 km
1700 ft yükseklikte az bulutlu
Ayın 27'si saat 0700 UTC'den
Rüzgar kuzeydoğudan 8 kt
Görüş mesafesi: 10 km
1600 ft yükseklikte parçalı bulutlu
12000 ft yükseklikte parçalı bulutlu
Civarda sağanaklar

TAF: PTYA 262333Z 2700/2724 06006KT P6SM FEW017 FM270700 05008KT P6SM VCSH SCT016 SCT120

4.000'den fazla havaalanı için hava durumu gözlemleri ve tahminleri (METAR ve TAF raporları).

Kullanılabilir istasyonlar harita üzerinde sarı ve kırmızı noktalarla gösterilir.

İstasyonun adını görmek için fareyi noktanın üzerinde gezdirin.

Sonrasında hava gözlem ve tahminlerini görmek için tıklayın.

Haritayı değiştirmek için: yaklaştırmak için siyah artı işaretli yeşil düğmeye ve uzaklaştırmak için de eksi işaretli düğmeye hızla tıklayın; bitişik haritalar için yeşil okları kullanın.


METAR-TAF: